sensor_id;sensor_type;location;lat;lon;timestamp;P1;durP1;ratioP1;P2;durP2;ratioP2
66487;SDS011;53304;54.550;18.526;2022-12-18T00:03:43;26.67;;;13.30;;
66487;SDS011;53304;54.550;18.526;2022-12-18T00:06:09;22.65;;;12.82;;
66487;SDS011;53304;54.550;18.526;2022-12-18T00:08:39;24.05;;;12.98;;
66487;SDS011;53304;54.550;18.526;2022-12-18T00:11:06;25.98;;;13.57;;
66487;SDS011;53304;54.550;18.526;2022-12-18T00:13:32;21.80;;;13.38;;
66487;SDS011;53304;54.550;18.526;2022-12-18T00:16:05;24.40;;;13.55;;
66487;SDS011;53304;54.550;18.526;2022-12-18T00:18:32;25.75;;;14.02;;
66487;SDS011;53304;54.550;18.526;2022-12-18T00:21:02;23.65;;;13.02;;
66487;SDS011;53304;54.550;18.526;2022-12-18T00:23:29;25.63;;;13.80;;
66487;SDS011;53304;54.550;18.526;2022-12-18T00:25:59;24.48;;;13.38;;
66487;SDS011;53304;54.550;18.526;2022-12-18T00:28:31;22.38;;;13.43;;
66487;SDS011;53304;54.550;18.526;2022-12-18T00:31:07;25.08;;;13.20;;
66487;SDS011;53304;54.550;18.526;2022-12-18T00:33:38;23.73;;;13.35;;
66487;SDS011;53304;54.550;18.526;2022-12-18T00:36:07;23.13;;;12.15;;
66487;SDS011;53304;54.550;18.526;2022-12-18T00:38:36;22.67;;;11.57;;
66487;SDS011;53304;54.550;18.526;2022-12-18T00:41:01;22.48;;;12.45;;
66487;SDS011;53304;54.550;18.526;2022-12-18T00:43:27;20.35;;;12.02;;
66487;SDS011;53304;54.550;18.526;2022-12-18T00:45:55;21.38;;;11.40;;
66487;SDS011;53304;54.550;18.526;2022-12-18T00:48:23;22.88;;;12.20;;
66487;SDS011;53304;54.550;18.526;2022-12-18T00:50:49;21.90;;;11.70;;
66487;SDS011;53304;54.550;18.526;2022-12-18T00:53:15;21.40;;;11.68;;
66487;SDS011;53304;54.550;18.526;2022-12-18T00:55:40;22.73;;;11.98;;
66487;SDS011;53304;54.550;18.526;2022-12-18T00:58:09;20.50;;;11.55;;
66487;SDS011;53304;54.550;18.526;2022-12-18T01:00:35;22.50;;;12.20;;
66487;SDS011;53304;54.550;18.526;2022-12-18T01:03:00;20.58;;;11.48;;
66487;SDS011;53304;54.550;18.526;2022-12-18T01:05:28;23.00;;;11.65;;
66487;SDS011;53304;54.550;18.526;2022-12-18T01:07:54;19.35;;;10.63;;
66487;SDS011;53304;54.550;18.526;2022-12-18T01:10:23;20.40;;;11.57;;
66487;SDS011;53304;54.550;18.526;2022-12-18T01:12:49;19.27;;;11.18;;
66487;SDS011;53304;54.550;18.526;2022-12-18T01:15:15;21.05;;;11.35;;
66487;SDS011;53304;54.550;18.526;2022-12-18T01:17:41;20.55;;;11.10;;
66487;SDS011;53304;54.550;18.526;2022-12-18T01:20:07;20.15;;;10.73;;
66487;SDS011;53304;54.550;18.526;2022-12-18T01:22:35;22.45;;;11.38;;
66487;SDS011;53304;54.550;18.526;2022-12-18T01:25:01;18.85;;;10.63;;
66487;SDS011;53304;54.550;18.526;2022-12-18T01:27:27;22.45;;;11.65;;
66487;SDS011;53304;54.550;18.526;2022-12-18T01:29:52;19.60;;;10.88;;
66487;SDS011;53304;54.550;18.526;2022-12-18T01:32:20;19.73;;;10.40;;
66487;SDS011;53304;54.550;18.526;2022-12-18T01:34:48;20.88;;;11.50;;
66487;SDS011;53304;54.550;18.526;2022-12-18T01:37:16;19.10;;;11.07;;
66487;SDS011;53304;54.550;18.526;2022-12-18T01:39:41;20.40;;;11.13;;
66487;SDS011;53304;54.550;18.526;2022-12-18T01:42:14;19.45;;;10.50;;
66487;SDS011;53304;54.550;18.526;2022-12-18T01:44:52;18.55;;;9.82;;
66487;SDS011;53304;54.550;18.526;2022-12-18T01:49:58;21.50;;;11.45;;
66487;SDS011;53304;54.550;18.526;2022-12-18T01:52:26;19.77;;;10.68;;
66487;SDS011;53304;54.550;18.526;2022-12-18T01:54:53;19.58;;;10.55;;
66487;SDS011;53304;54.550;18.526;2022-12-18T01:57:24;18.27;;;10.45;;
66487;SDS011;53304;54.550;18.526;2022-12-18T01:59:51;18.23;;;10.75;;
66487;SDS011;53304;54.550;18.526;2022-12-18T02:02:18;20.67;;;10.65;;
66487;SDS011;53304;54.550;18.526;2022-12-18T02:04:46;19.33;;;10.35;;
66487;SDS011;53304;54.550;18.526;2022-12-18T02:10:22;19.42;;;10.30;;
66487;SDS011;53304;54.550;18.526;2022-12-18T02:15:36;18.38;;;9.85;;
66487;SDS011;53304;54.550;18.526;2022-12-18T02:23:48;20.45;;;10.13;;
66487;SDS011;53304;54.550;18.526;2022-12-18T02:28:41;19.20;;;9.98;;
66487;SDS011;53304;54.550;18.526;2022-12-18T02:31:10;18.05;;;9.85;;
66487;SDS011;53304;54.550;18.526;2022-12-18T02:33:42;19.58;;;10.45;;
66487;SDS011;53304;54.550;18.526;2022-12-18T02:36:11;19.35;;;10.32;;
66487;SDS011;53304;54.550;18.526;2022-12-18T02:38:38;19.38;;;10.07;;
66487;SDS011;53304;54.550;18.526;2022-12-18T02:41:04;18.73;;;9.65;;
66487;SDS011;53304;54.550;18.526;2022-12-18T02:43:30;17.73;;;10.30;;
66487;SDS011;53304;54.550;18.526;2022-12-18T02:45:58;19.35;;;9.93;;
66487;SDS011;53304;54.550;18.526;2022-12-18T02:48:29;17.50;;;9.20;;
66487;SDS011;53304;54.550;18.526;2022-12-18T02:53:59;16.00;;;9.25;;
66487;SDS011;53304;54.550;18.526;2022-12-18T02:56:35;17.42;;;9.10;;
66487;SDS011;53304;54.550;18.526;2022-12-18T02:59:09;17.48;;;9.45;;
66487;SDS011;53304;54.550;18.526;2022-12-18T03:06:59;16.30;;;9.63;;
66487;SDS011;53304;54.550;18.526;2022-12-18T03:09:35;17.67;;;9.35;;
66487;SDS011;53304;54.550;18.526;2022-12-18T03:12:07;16.75;;;9.70;;
66487;SDS011;53304;54.550;18.526;2022-12-18T03:14:54;16.60;;;8.95;;
66487;SDS011;53304;54.550;18.526;2022-12-18T03:17:20;15.98;;;9.02;;
66487;SDS011;53304;54.550;18.526;2022-12-18T03:19:48;16.17;;;9.13;;
66487;SDS011;53304;54.550;18.526;2022-12-18T03:22:17;17.00;;;8.98;;
66487;SDS011;53304;54.550;18.526;2022-12-18T03:24:43;17.20;;;9.35;;
66487;SDS011;53304;54.550;18.526;2022-12-18T03:27:13;17.40;;;9.13;;
66487;SDS011;53304;54.550;18.526;2022-12-18T03:29:52;17.77;;;8.73;;
66487;SDS011;53304;54.550;18.526;2022-12-18T03:32:25;14.82;;;8.02;;
66487;SDS011;53304;54.550;18.526;2022-12-18T03:34:57;16.55;;;8.75;;
66487;SDS011;53304;54.550;18.526;2022-12-18T03:37:24;15.45;;;9.00;;
66487;SDS011;53304;54.550;18.526;2022-12-18T03:39:55;14.23;;;8.45;;
66487;SDS011;53304;54.550;18.526;2022-12-18T03:42:45;13.27;;;8.25;;
66487;SDS011;53304;54.550;18.526;2022-12-18T03:47:56;15.52;;;8.60;;
66487;SDS011;53304;54.550;18.526;2022-12-18T03:55:39;16.92;;;8.88;;
66487;SDS011;53304;54.550;18.526;2022-12-18T03:58:05;14.20;;;7.50;;
66487;SDS011;53304;54.550;18.526;2022-12-18T04:00:34;14.43;;;8.07;;
66487;SDS011;53304;54.550;18.526;2022-12-18T04:03:04;16.13;;;7.93;;
66487;SDS011;53304;54.550;18.526;2022-12-18T04:05:33;15.90;;;8.05;;
66487;SDS011;53304;54.550;18.526;2022-12-18T04:07:59;13.07;;;7.78;;
66487;SDS011;53304;54.550;18.526;2022-12-18T04:10:27;16.02;;;8.45;;
66487;SDS011;53304;54.550;18.526;2022-12-18T04:12:55;14.23;;;7.65;;
66487;SDS011;53304;54.550;18.526;2022-12-18T04:15:23;15.77;;;7.57;;
66487;SDS011;53304;54.550;18.526;2022-12-18T04:17:49;14.52;;;7.70;;
66487;SDS011;53304;54.550;18.526;2022-12-18T04:20:17;14.40;;;7.28;;
66487;SDS011;53304;54.550;18.526;2022-12-18T04:22:43;14.77;;;7.80;;
66487;SDS011;53304;54.550;18.526;2022-12-18T04:25:08;14.57;;;7.95;;
66487;SDS011;53304;54.550;18.526;2022-12-18T04:27:38;13.45;;;7.55;;
66487;SDS011;53304;54.550;18.526;2022-12-18T04:30:07;14.02;;;7.32;;
66487;SDS011;53304;54.550;18.526;2022-12-18T04:32:33;14.20;;;7.65;;
66487;SDS011;53304;54.550;18.526;2022-12-18T04:35:02;13.40;;;7.47;;
66487;SDS011;53304;54.550;18.526;2022-12-18T04:37:31;13.88;;;6.80;;
66487;SDS011;53304;54.550;18.526;2022-12-18T04:39:57;14.02;;;7.68;;
66487;SDS011;53304;54.550;18.526;2022-12-18T04:42:24;14.45;;;7.32;;
66487;SDS011;53304;54.550;18.526;2022-12-18T04:44:52;14.20;;;7.03;;
66487;SDS011;53304;54.550;18.526;2022-12-18T04:47:17;12.15;;;6.82;;
66487;SDS011;53304;54.550;18.526;2022-12-18T04:49:45;11.73;;;6.75;;
66487;SDS011;53304;54.550;18.526;2022-12-18T04:52:10;12.40;;;7.15;;
66487;SDS011;53304;54.550;18.526;2022-12-18T04:54:36;14.95;;;7.22;;
66487;SDS011;53304;54.550;18.526;2022-12-18T04:57:03;13.02;;;7.35;;
66487;SDS011;53304;54.550;18.526;2022-12-18T04:59:31;12.75;;;6.82;;
66487;SDS011;53304;54.550;18.526;2022-12-18T05:01:59;11.50;;;6.55;;
66487;SDS011;53304;54.550;18.526;2022-12-18T05:04:24;13.35;;;7.00;;
66487;SDS011;53304;54.550;18.526;2022-12-18T05:06:50;11.27;;;6.72;;
66487;SDS011;53304;54.550;18.526;2022-12-18T05:09:15;12.43;;;7.03;;
66487;SDS011;53304;54.550;18.526;2022-12-18T05:11:40;13.02;;;6.68;;
66487;SDS011;53304;54.550;18.526;2022-12-18T05:14:08;12.02;;;6.78;;
66487;SDS011;53304;54.550;18.526;2022-12-18T05:16:36;13.82;;;7.10;;
66487;SDS011;53304;54.550;18.526;2022-12-18T05:19:06;11.68;;;6.28;;
66487;SDS011;53304;54.550;18.526;2022-12-18T05:21:32;11.57;;;6.60;;
66487;SDS011;53304;54.550;18.526;2022-12-18T05:23:59;10.50;;;5.95;;
66487;SDS011;53304;54.550;18.526;2022-12-18T05:26:25;13.02;;;6.50;;
66487;SDS011;53304;54.550;18.526;2022-12-18T05:28:50;12.30;;;6.35;;
66487;SDS011;53304;54.550;18.526;2022-12-18T05:31:18;12.18;;;6.20;;
66487;SDS011;53304;54.550;18.526;2022-12-18T05:33:43;11.60;;;6.13;;
66487;SDS011;53304;54.550;18.526;2022-12-18T05:36:11;11.95;;;6.68;;
66487;SDS011;53304;54.550;18.526;2022-12-18T05:38:39;10.18;;;5.80;;
66487;SDS011;53304;54.550;18.526;2022-12-18T05:41:05;11.40;;;6.32;;
66487;SDS011;53304;54.550;18.526;2022-12-18T05:43:31;10.75;;;5.85;;
66487;SDS011;53304;54.550;18.526;2022-12-18T05:46:02;11.63;;;6.10;;
66487;SDS011;53304;54.550;18.526;2022-12-18T05:48:38;11.77;;;6.10;;
66487;SDS011;53304;54.550;18.526;2022-12-18T05:51:08;11.75;;;6.10;;
66487;SDS011;53304;54.550;18.526;2022-12-18T05:53:38;11.15;;;5.60;;
66487;SDS011;53304;54.550;18.526;2022-12-18T05:56:07;11.40;;;5.60;;
66487;SDS011;53304;54.550;18.526;2022-12-18T05:58:34;10.48;;;5.40;;
66487;SDS011;53304;54.550;18.526;2022-12-18T06:01:09;9.35;;;4.93;;
66487;SDS011;53304;54.550;18.526;2022-12-18T06:03:38;10.10;;;5.65;;
66487;SDS011;53304;54.550;18.526;2022-12-18T06:06:04;10.68;;;5.63;;
66487;SDS011;53304;54.550;18.526;2022-12-18T06:08:37;10.90;;;5.70;;
66487;SDS011;53304;54.550;18.526;2022-12-18T06:11:08;10.75;;;5.93;;
66487;SDS011;53304;54.550;18.526;2022-12-18T06:13:36;11.18;;;5.75;;
66487;SDS011;53304;54.550;18.526;2022-12-18T06:16:05;10.57;;;5.70;;
66487;SDS011;53304;54.550;18.526;2022-12-18T06:18:33;10.25;;;5.38;;
66487;SDS011;53304;54.550;18.526;2022-12-18T06:21:04;12.43;;;5.88;;
66487;SDS011;53304;54.550;18.526;2022-12-18T06:23:29;10.45;;;5.60;;
66487;SDS011;53304;54.550;18.526;2022-12-18T06:25:57;9.10;;;5.38;;
66487;SDS011;53304;54.550;18.526;2022-12-18T06:28:25;9.40;;;5.13;;
66487;SDS011;53304;54.550;18.526;2022-12-18T06:30:50;11.00;;;5.35;;
66487;SDS011;53304;54.550;18.526;2022-12-18T06:33:18;10.48;;;5.43;;
66487;SDS011;53304;54.550;18.526;2022-12-18T06:35:43;9.75;;;5.53;;
66487;SDS011;53304;54.550;18.526;2022-12-18T06:38:09;9.23;;;5.47;;
66487;SDS011;53304;54.550;18.526;2022-12-18T06:40:37;9.20;;;5.20;;
66487;SDS011;53304;54.550;18.526;2022-12-18T06:43:06;11.00;;;5.22;;
66487;SDS011;53304;54.550;18.526;2022-12-18T06:45:34;9.98;;;4.93;;
66487;SDS011;53304;54.550;18.526;2022-12-18T06:48:06;9.13;;;5.07;;
66487;SDS011;53304;54.550;18.526;2022-12-18T06:50:32;10.77;;;5.25;;
66487;SDS011;53304;54.550;18.526;2022-12-18T06:52:57;8.63;;;4.57;;
66487;SDS011;53304;54.550;18.526;2022-12-18T06:55:23;10.35;;;5.03;;
66487;SDS011;53304;54.550;18.526;2022-12-18T06:57:48;9.45;;;4.35;;
66487;SDS011;53304;54.550;18.526;2022-12-18T07:00:16;9.55;;;5.00;;
66487;SDS011;53304;54.550;18.526;2022-12-18T07:02:42;9.35;;;4.95;;
66487;SDS011;53304;54.550;18.526;2022-12-18T07:05:07;8.52;;;4.53;;
66487;SDS011;53304;54.550;18.526;2022-12-18T07:07:33;10.18;;;5.50;;
66487;SDS011;53304;54.550;18.526;2022-12-18T07:09:59;10.32;;;4.75;;
66487;SDS011;53304;54.550;18.526;2022-12-18T07:12:27;9.35;;;4.90;;
66487;SDS011;53304;54.550;18.526;2022-12-18T07:14:57;9.63;;;4.82;;
66487;SDS011;53304;54.550;18.526;2022-12-18T07:17:22;9.32;;;4.88;;
66487;SDS011;53304;54.550;18.526;2022-12-18T07:19:50;10.55;;;5.38;;
66487;SDS011;53304;54.550;18.526;2022-12-18T07:22:18;10.48;;;4.80;;
66487;SDS011;53304;54.550;18.526;2022-12-18T07:24:43;10.07;;;4.90;;
66487;SDS011;53304;54.550;18.526;2022-12-18T07:27:09;9.15;;;5.03;;
66487;SDS011;53304;54.550;18.526;2022-12-18T07:29:34;9.43;;;4.88;;
66487;SDS011;53304;54.550;18.526;2022-12-18T07:31:59;8.95;;;4.80;;
66487;SDS011;53304;54.550;18.526;2022-12-18T07:34:27;9.43;;;4.68;;
66487;SDS011;53304;54.550;18.526;2022-12-18T07:36:52;9.27;;;5.15;;
66487;SDS011;53304;54.550;18.526;2022-12-18T07:39:18;9.10;;;5.05;;
66487;SDS011;53304;54.550;18.526;2022-12-18T07:41:43;9.73;;;4.65;;
66487;SDS011;53304;54.550;18.526;2022-12-18T07:44:31;9.10;;;4.95;;
66487;SDS011;53304;54.550;18.526;2022-12-18T07:46:56;8.00;;;4.95;;
66487;SDS011;53304;54.550;18.526;2022-12-18T07:49:22;9.63;;;5.03;;
66487;SDS011;53304;54.550;18.526;2022-12-18T07:51:47;9.75;;;4.78;;
66487;SDS011;53304;54.550;18.526;2022-12-18T07:54:14;8.35;;;4.60;;
66487;SDS011;53304;54.550;18.526;2022-12-18T07:56:42;9.27;;;4.47;;
66487;SDS011;53304;54.550;18.526;2022-12-18T07:59:12;8.80;;;4.72;;
66487;SDS011;53304;54.550;18.526;2022-12-18T08:01:41;8.25;;;4.63;;
66487;SDS011;53304;54.550;18.526;2022-12-18T08:04:11;7.70;;;4.40;;
66487;SDS011;53304;54.550;18.526;2022-12-18T08:06:36;8.80;;;4.50;;
66487;SDS011;53304;54.550;18.526;2022-12-18T08:09:02;8.80;;;4.80;;
66487;SDS011;53304;54.550;18.526;2022-12-18T08:11:29;8.70;;;4.38;;
66487;SDS011;53304;54.550;18.526;2022-12-18T08:13:55;8.68;;;4.43;;
66487;SDS011;53304;54.550;18.526;2022-12-18T08:16:21;8.63;;;4.60;;
66487;SDS011;53304;54.550;18.526;2022-12-18T08:18:48;8.23;;;4.18;;
66487;SDS011;53304;54.550;18.526;2022-12-18T08:21:14;9.02;;;4.80;;
66487;SDS011;53304;54.550;18.526;2022-12-18T08:23:43;9.70;;;4.63;;
66487;SDS011;53304;54.550;18.526;2022-12-18T08:26:09;9.27;;;4.80;;
66487;SDS011;53304;54.550;18.526;2022-12-18T08:28:38;7.45;;;4.32;;
66487;SDS011;53304;54.550;18.526;2022-12-18T08:31:06;8.93;;;4.53;;
66487;SDS011;53304;54.550;18.526;2022-12-18T08:33:35;8.73;;;4.47;;
66487;SDS011;53304;54.550;18.526;2022-12-18T08:36:05;8.40;;;4.22;;
66487;SDS011;53304;54.550;18.526;2022-12-18T08:38:35;7.97;;;4.35;;
66487;SDS011;53304;54.550;18.526;2022-12-18T08:41:04;8.85;;;4.22;;
66487;SDS011;53304;54.550;18.526;2022-12-18T08:43:30;8.88;;;4.20;;
66487;SDS011;53304;54.550;18.526;2022-12-18T08:46:14;6.93;;;4.28;;
66487;SDS011;53304;54.550;18.526;2022-12-18T08:48:42;7.97;;;4.07;;
66487;SDS011;53304;54.550;18.526;2022-12-18T08:51:13;7.80;;;4.13;;
66487;SDS011;53304;54.550;18.526;2022-12-18T08:53:41;8.30;;;4.30;;
66487;SDS011;53304;54.550;18.526;2022-12-18T08:56:14;7.72;;;4.10;;
66487;SDS011;53304;54.550;18.526;2022-12-18T08:58:43;7.45;;;4.10;;
66487;SDS011;53304;54.550;18.526;2022-12-18T09:01:11;8.18;;;4.43;;
66487;SDS011;53304;54.550;18.526;2022-12-18T09:03:38;9.38;;;4.05;;
66487;SDS011;53304;54.550;18.526;2022-12-18T09:06:05;7.72;;;4.22;;
66487;SDS011;53304;54.550;18.526;2022-12-18T09:08:34;7.88;;;4.18;;
66487;SDS011;53304;54.550;18.526;2022-12-18T09:10:59;7.47;;;4.50;;
66487;SDS011;53304;54.550;18.526;2022-12-18T09:13:24;8.35;;;4.18;;
66487;SDS011;53304;54.550;18.526;2022-12-18T09:15:51;7.50;;;4.10;;
66487;SDS011;53304;54.550;18.526;2022-12-18T09:18:21;8.60;;;4.40;;
66487;SDS011;53304;54.550;18.526;2022-12-18T09:20:47;7.78;;;4.13;;
66487;SDS011;53304;54.550;18.526;2022-12-18T09:23:14;8.45;;;4.22;;
66487;SDS011;53304;54.550;18.526;2022-12-18T09:25:42;7.25;;;3.97;;
66487;SDS011;53304;54.550;18.526;2022-12-18T09:28:12;7.18;;;3.95;;
66487;SDS011;53304;54.550;18.526;2022-12-18T09:30:39;8.23;;;4.20;;
66487;SDS011;53304;54.550;18.526;2022-12-18T09:33:14;8.52;;;4.47;;
66487;SDS011;53304;54.550;18.526;2022-12-18T09:35:43;8.35;;;4.25;;
66487;SDS011;53304;54.550;18.526;2022-12-18T09:38:13;8.73;;;4.30;;
66487;SDS011;53304;54.550;18.526;2022-12-18T09:40:44;8.27;;;4.47;;
66487;SDS011;53304;54.550;18.526;2022-12-18T09:43:19;8.05;;;4.05;;
66487;SDS011;53304;54.550;18.526;2022-12-18T09:45:47;8.57;;;4.28;;
66487;SDS011;53304;54.550;18.526;2022-12-18T09:48:36;8.55;;;4.47;;
66487;SDS011;53304;54.550;18.526;2022-12-18T09:51:15;7.68;;;4.03;;
66487;SDS011;53304;54.550;18.526;2022-12-18T09:53:44;8.10;;;4.20;;
66487;SDS011;53304;54.550;18.526;2022-12-18T09:56:16;7.13;;;4.05;;
66487;SDS011;53304;54.550;18.526;2022-12-18T09:58:58;8.18;;;4.07;;
66487;SDS011;53304;54.550;18.526;2022-12-18T10:01:27;7.60;;;3.92;;
66487;SDS011;53304;54.550;18.526;2022-12-18T10:03:57;7.25;;;4.18;;
66487;SDS011;53304;54.550;18.526;2022-12-18T10:06:26;7.88;;;4.07;;
66487;SDS011;53304;54.550;18.526;2022-12-18T10:21:51;7.78;;;3.97;;
66487;SDS011;53304;54.550;18.526;2022-12-18T10:27:24;6.93;;;3.78;;
66487;SDS011;53304;54.550;18.526;2022-12-18T10:29:51;7.43;;;3.88;;
66487;SDS011;53304;54.550;18.526;2022-12-18T10:32:20;7.70;;;4.10;;
66487;SDS011;53304;54.550;18.526;2022-12-18T10:34:50;7.35;;;3.75;;
66487;SDS011;53304;54.550;18.526;2022-12-18T10:37:18;7.57;;;3.78;;
66487;SDS011;53304;54.550;18.526;2022-12-18T10:42:43;7.40;;;3.85;;
66487;SDS011;53304;54.550;18.526;2022-12-18T10:45:13;7.57;;;3.80;;
66487;SDS011;53304;54.550;18.526;2022-12-18T10:47:43;7.22;;;3.80;;
66487;SDS011;53304;54.550;18.526;2022-12-18T10:50:31;8.38;;;4.30;;
66487;SDS011;53304;54.550;18.526;2022-12-18T10:53:00;7.95;;;4.05;;
66487;SDS011;53304;54.550;18.526;2022-12-18T10:55:30;6.95;;;4.10;;
66487;SDS011;53304;54.550;18.526;2022-12-18T10:58:13;9.02;;;4.10;;
66487;SDS011;53304;54.550;18.526;2022-12-18T11:00:45;7.88;;;4.10;;
66487;SDS011;53304;54.550;18.526;2022-12-18T11:03:45;8.52;;;4.20;;
66487;SDS011;53304;54.550;18.526;2022-12-18T11:06:25;7.50;;;3.90;;
66487;SDS011;53304;54.550;18.526;2022-12-18T11:09:00;8.40;;;4.28;;
66487;SDS011;53304;54.550;18.526;2022-12-18T11:11:47;7.82;;;4.45;;
66487;SDS011;53304;54.550;18.526;2022-12-18T11:14:20;7.53;;;4.07;;
66487;SDS011;53304;54.550;18.526;2022-12-18T11:17:17;7.70;;;4.10;;
66487;SDS011;53304;54.550;18.526;2022-12-18T11:19:43;10.20;;;4.65;;
66487;SDS011;53304;54.550;18.526;2022-12-18T11:27:47;9.13;;;4.25;;
66487;SDS011;53304;54.550;18.526;2022-12-18T11:30:37;8.73;;;4.50;;
66487;SDS011;53304;54.550;18.526;2022-12-18T11:33:04;8.60;;;4.35;;
66487;SDS011;53304;54.550;18.526;2022-12-18T11:35:33;8.45;;;4.18;;
66487;SDS011;53304;54.550;18.526;2022-12-18T11:38:37;9.20;;;4.25;;
66487;SDS011;53304;54.550;18.526;2022-12-18T11:43:45;10.00;;;4.60;;
66487;SDS011;53304;54.550;18.526;2022-12-18T11:46:17;9.02;;;4.60;;
66487;SDS011;53304;54.550;18.526;2022-12-18T11:48:57;8.73;;;4.30;;
66487;SDS011;53304;54.550;18.526;2022-12-18T11:51:33;8.07;;;4.20;;
66487;SDS011;53304;54.550;18.526;2022-12-18T11:54:09;8.88;;;4.60;;
66487;SDS011;53304;54.550;18.526;2022-12-18T11:56:46;8.45;;;4.78;;
66487;SDS011;53304;54.550;18.526;2022-12-18T12:01:48;9.43;;;4.40;;
66487;SDS011;53304;54.550;18.526;2022-12-18T12:04:48;9.38;;;4.95;;
66487;SDS011;53304;54.550;18.526;2022-12-18T12:07:45;8.40;;;4.65;;
66487;SDS011;53304;54.550;18.526;2022-12-18T12:21:09;8.02;;;4.05;;
66487;SDS011;53304;54.550;18.526;2022-12-18T12:26:30;8.18;;;4.22;;
66487;SDS011;53304;54.550;18.526;2022-12-18T12:34:24;8.18;;;4.28;;
66487;SDS011;53304;54.550;18.526;2022-12-18T12:39:31;7.95;;;4.05;;
66487;SDS011;53304;54.550;18.526;2022-12-18T12:42:06;8.05;;;4.25;;
66487;SDS011;53304;54.550;18.526;2022-12-18T12:45:07;7.75;;;4.05;;
66487;SDS011;53304;54.550;18.526;2022-12-18T12:47:41;9.90;;;4.45;;
66487;SDS011;53304;54.550;18.526;2022-12-18T12:50:17;8.18;;;4.10;;
66487;SDS011;53304;54.550;18.526;2022-12-18T12:52:49;8.20;;;4.45;;
66487;SDS011;53304;54.550;18.526;2022-12-18T12:55:20;7.30;;;4.20;;
66487;SDS011;53304;54.550;18.526;2022-12-18T13:00:31;7.55;;;3.90;;
66487;SDS011;53304;54.550;18.526;2022-12-18T13:03:23;7.63;;;3.90;;
66487;SDS011;53304;54.550;18.526;2022-12-18T13:08:58;7.40;;;3.92;;
66487;SDS011;53304;54.550;18.526;2022-12-18T13:11:30;7.40;;;4.00;;
66487;SDS011;53304;54.550;18.526;2022-12-18T13:14:27;12.88;;;4.30;;
66487;SDS011;53304;54.550;18.526;2022-12-18T13:17:15;11.98;;;4.20;;
66487;SDS011;53304;54.550;18.526;2022-12-18T13:19:47;9.93;;;3.70;;
66487;SDS011;53304;54.550;18.526;2022-12-18T13:25:26;10.63;;;4.43;;
66487;SDS011;53304;54.550;18.526;2022-12-18T13:45:45;10.57;;;4.40;;
66487;SDS011;53304;54.550;18.526;2022-12-18T13:48:21;7.50;;;4.07;;
66487;SDS011;53304;54.550;18.526;2022-12-18T13:50:49;7.13;;;4.00;;
66487;SDS011;53304;54.550;18.526;2022-12-18T13:53:20;8.32;;;4.00;;
66487;SDS011;53304;54.550;18.526;2022-12-18T13:55:48;9.98;;;3.90;;
66487;SDS011;53304;54.550;18.526;2022-12-18T13:58:16;8.25;;;3.78;;
66487;SDS011;53304;54.550;18.526;2022-12-18T14:00:42;8.30;;;4.00;;
66487;SDS011;53304;54.550;18.526;2022-12-18T14:03:21;8.35;;;3.95;;
66487;SDS011;53304;54.550;18.526;2022-12-18T14:06:06;7.00;;;3.67;;
66487;SDS011;53304;54.550;18.526;2022-12-18T14:08:36;8.40;;;3.95;;
66487;SDS011;53304;54.550;18.526;2022-12-18T14:11:04;9.45;;;3.88;;
66487;SDS011;53304;54.550;18.526;2022-12-18T14:13:35;12.15;;;4.05;;
66487;SDS011;53304;54.550;18.526;2022-12-18T14:16:03;10.50;;;4.53;;
66487;SDS011;53304;54.550;18.526;2022-12-18T14:18:38;5.95;;;3.45;;
66487;SDS011;53304;54.550;18.526;2022-12-18T14:21:15;8.30;;;3.67;;
66487;SDS011;53304;54.550;18.526;2022-12-18T14:26:30;10.98;;;3.85;;
66487;SDS011;53304;54.550;18.526;2022-12-18T14:28:56;9.13;;;3.90;;
66487;SDS011;53304;54.550;18.526;2022-12-18T14:31:38;6.60;;;3.60;;
66487;SDS011;53304;54.550;18.526;2022-12-18T14:34:03;11.27;;;3.70;;
66487;SDS011;53304;54.550;18.526;2022-12-18T14:36:29;8.98;;;3.92;;
66487;SDS011;53304;54.550;18.526;2022-12-18T14:38:57;8.70;;;3.75;;
66487;SDS011;53304;54.550;18.526;2022-12-18T14:41:23;8.60;;;3.92;;
66487;SDS011;53304;54.550;18.526;2022-12-18T14:43:50;7.95;;;3.75;;
66487;SDS011;53304;54.550;18.526;2022-12-18T14:49:04;9.25;;;3.90;;
66487;SDS011;53304;54.550;18.526;2022-12-18T14:51:41;7.07;;;3.63;;
66487;SDS011;53304;54.550;18.526;2022-12-18T14:54:17;10.15;;;3.97;;
66487;SDS011;53304;54.550;18.526;2022-12-18T14:56:44;11.02;;;4.10;;
66487;SDS011;53304;54.550;18.526;2022-12-18T14:59:24;8.25;;;3.90;;
66487;SDS011;53304;54.550;18.526;2022-12-18T15:04:28;6.72;;;3.50;;
66487;SDS011;53304;54.550;18.526;2022-12-18T15:10:09;7.72;;;3.63;;
66487;SDS011;53304;54.550;18.526;2022-12-18T15:12:44;8.70;;;4.00;;
66487;SDS011;53304;54.550;18.526;2022-12-18T15:20:31;9.40;;;3.70;;
66487;SDS011;53304;54.550;18.526;2022-12-18T15:22:58;9.30;;;4.20;;
66487;SDS011;53304;54.550;18.526;2022-12-18T15:25:29;7.05;;;3.55;;
66487;SDS011;53304;54.550;18.526;2022-12-18T15:27:57;10.35;;;3.90;;
66487;SDS011;53304;54.550;18.526;2022-12-18T15:30:25;9.02;;;4.03;;
66487;SDS011;53304;54.550;18.526;2022-12-18T15:33:16;8.10;;;3.85;;
66487;SDS011;53304;54.550;18.526;2022-12-18T15:35:57;7.22;;;3.88;;
66487;SDS011;53304;54.550;18.526;2022-12-18T15:38:24;7.40;;;3.83;;
66487;SDS011;53304;54.550;18.526;2022-12-18T15:40:49;7.20;;;3.63;;
66487;SDS011;53304;54.550;18.526;2022-12-18T15:43:14;7.70;;;3.65;;
66487;SDS011;53304;54.550;18.526;2022-12-18T15:45:59;13.23;;;4.45;;
66487;SDS011;53304;54.550;18.526;2022-12-18T15:48:28;9.30;;;4.30;;
66487;SDS011;53304;54.550;18.526;2022-12-18T15:50:55;10.85;;;4.00;;
66487;SDS011;53304;54.550;18.526;2022-12-18T15:53:22;7.75;;;3.85;;
66487;SDS011;53304;54.550;18.526;2022-12-18T15:55:48;6.82;;;3.72;;
66487;SDS011;53304;54.550;18.526;2022-12-18T15:58:33;7.57;;;3.78;;
66487;SDS011;53304;54.550;18.526;2022-12-18T16:01:01;8.55;;;3.67;;
66487;SDS011;53304;54.550;18.526;2022-12-18T16:03:26;7.65;;;3.92;;
66487;SDS011;53304;54.550;18.526;2022-12-18T16:05:52;7.65;;;3.90;;
66487;SDS011;53304;54.550;18.526;2022-12-18T16:08:17;7.97;;;3.60;;
66487;SDS011;53304;54.550;18.526;2022-12-18T16:10:43;7.00;;;3.72;;
66487;SDS011;53304;54.550;18.526;2022-12-18T16:13:11;9.32;;;4.00;;
66487;SDS011;53304;54.550;18.526;2022-12-18T16:15:40;8.75;;;4.30;;
66487;SDS011;53304;54.550;18.526;2022-12-18T16:18:08;9.00;;;4.15;;
66487;SDS011;53304;54.550;18.526;2022-12-18T16:20:33;8.88;;;3.67;;
66487;SDS011;53304;54.550;18.526;2022-12-18T16:22:59;17.13;;;5.07;;
66487;SDS011;53304;54.550;18.526;2022-12-18T16:25:26;15.45;;;4.95;;
66487;SDS011;53304;54.550;18.526;2022-12-18T16:27:53;22.90;;;5.55;;
66487;SDS011;53304;54.550;18.526;2022-12-18T16:30:22;15.10;;;4.78;;
66487;SDS011;53304;54.550;18.526;2022-12-18T16:32:51;13.50;;;4.63;;
66487;SDS011;53304;54.550;18.526;2022-12-18T16:35:16;12.73;;;4.78;;
66487;SDS011;53304;54.550;18.526;2022-12-18T16:37:44;14.85;;;4.60;;
66487;SDS011;53304;54.550;18.526;2022-12-18T16:40:11;10.90;;;4.47;;
66487;SDS011;53304;54.550;18.526;2022-12-18T16:42:39;9.88;;;4.20;;
66487;SDS011;53304;54.550;18.526;2022-12-18T16:45:06;12.00;;;4.38;;
66487;SDS011;53304;54.550;18.526;2022-12-18T16:47:33;12.30;;;4.72;;
66487;SDS011;53304;54.550;18.526;2022-12-18T16:50:01;12.00;;;4.97;;
66487;SDS011;53304;54.550;18.526;2022-12-18T16:52:29;11.70;;;4.75;;